sensor_id;sensor_type;location;lat;lon;timestamp;pressure;altitude;pressure_sealevel;temperature;humidity
13478;BME280;12598;62.382;17.344;2023-03-13T00:00:08;99719.53;;;14.67;15.76
13478;BME280;12598;62.382;17.344;2023-03-13T00:02:15;99714.81;;;14.61;16.29
13478;BME280;12598;62.382;17.344;2023-03-13T00:03:17;99715.81;;;14.60;16.34
13478;BME280;12598;62.382;17.344;2023-03-13T00:04:19;99729.31;;;14.67;16.32
13478;BME280;12598;62.382;17.344;2023-03-13T00:05:21;99719.69;;;14.66;15.77
13478;BME280;12598;62.382;17.344;2023-03-13T00:06:25;99717.19;;;14.64;15.66
13478;BME280;12598;62.382;17.344;2023-03-13T00:07:27;99710.19;;;14.63;16.26
13478;BME280;12598;62.382;17.344;2023-03-13T00:08:29;99719.00;;;14.64;16.31
13478;BME280;12598;62.382;17.344;2023-03-13T00:09:31;99720.84;;;14.63;16.15
13478;BME280;12598;62.382;17.344;2023-03-13T00:10:39;99716.81;;;14.59;15.82
13478;BME280;12598;62.382;17.344;2023-03-13T00:11:43;99713.16;;;14.60;15.93
13478;BME280;12598;62.382;17.344;2023-03-13T00:12:45;99705.78;;;14.54;16.09
13478;BME280;12598;62.382;17.344;2023-03-13T00:13:47;99715.81;;;14.60;16.04
13478;BME280;12598;62.382;17.344;2023-03-13T00:14:48;99689.34;;;14.41;15.72
13478;BME280;12598;62.382;17.344;2023-03-13T00:15:58;99708.13;;;14.57;15.87
13478;BME280;12598;62.382;17.344;2023-03-13T00:17:00;99716.13;;;14.57;16.27
13478;BME280;12598;62.382;17.344;2023-03-13T00:18:03;99710.81;;;14.57;15.70
13478;BME280;12598;62.382;17.344;2023-03-13T00:19:07;99714.44;;;14.56;15.99
13478;BME280;12598;62.382;17.344;2023-03-13T00:20:09;99714.44;;;14.56;16.11
13478;BME280;12598;62.382;17.344;2023-03-13T00:21:11;99705.78;;;14.54;15.81
13478;BME280;12598;62.382;17.344;2023-03-13T00:22:13;99709.44;;;14.53;15.76
13478;BME280;12598;62.382;17.344;2023-03-13T00:23:15;99704.25;;;14.52;16.34
13478;BME280;12598;62.382;17.344;2023-03-13T00:24:17;99707.75;;;14.52;16.10
13478;BME280;12598;62.382;17.344;2023-03-13T00:25:19;99712.41;;;14.50;16.23
13478;BME280;12598;62.382;17.344;2023-03-13T00:26:23;99708.88;;;14.50;15.83
13478;BME280;12598;62.382;17.344;2023-03-13T00:27:25;99708.88;;;14.50;15.96
13478;BME280;12598;62.382;17.344;2023-03-13T00:28:28;99715.19;;;14.49;16.09
13478;BME280;12598;62.382;17.344;2023-03-13T00:29:33;99712.69;;;14.47;16.09
13478;BME280;12598;62.382;17.344;2023-03-13T00:30:35;99714.81;;;14.44;15.88
13478;BME280;12598;62.382;17.344;2023-03-13T00:31:37;99702.50;;;14.43;16.21
13478;BME280;12598;62.382;17.344;2023-03-13T00:32:40;99722.63;;;14.45;15.84
13478;BME280;12598;62.382;17.344;2023-03-13T00:33:45;99729.78;;;14.45;15.71
13478;BME280;12598;62.382;17.344;2023-03-13T00:34:48;99715.63;;;14.44;16.03
13478;BME280;12598;62.382;17.344;2023-03-13T00:35:50;99721.78;;;14.45;16.11
13478;BME280;12598;62.382;17.344;2023-03-13T00:36:53;99730.75;;;14.44;15.71
13478;BME280;12598;62.382;17.344;2023-03-13T00:37:56;99730.75;;;14.44;15.89
13478;BME280;12598;62.382;17.344;2023-03-13T00:38:59;99718.59;;;14.41;16.04
13478;BME280;12598;62.382;17.344;2023-03-13T00:40:01;99729.22;;;14.41;15.74
13478;BME280;12598;62.382;17.344;2023-03-13T00:41:06;99729.22;;;14.41;16.35
13478;BME280;12598;62.382;17.344;2023-03-13T00:42:08;99732.72;;;14.42;15.98
13478;BME280;12598;62.382;17.344;2023-03-13T00:43:10;99724.88;;;14.40;16.08
13478;BME280;12598;62.382;17.344;2023-03-13T00:44:13;99725.88;;;14.39;16.25
13478;BME280;12598;62.382;17.344;2023-03-13T00:45:15;99723.38;;;14.38;16.17
13478;BME280;12598;62.382;17.344;2023-03-13T00:46:20;99718.06;;;14.38;16.07
13478;BME280;12598;62.382;17.344;2023-03-13T00:47:22;99721.53;;;14.38;16.18
13478;BME280;12598;62.382;17.344;2023-03-13T00:48:24;99720.84;;;14.36;16.04
13478;BME280;12598;62.382;17.344;2023-03-13T00:49:27;99705.81;;;14.27;16.17
13478;BME280;12598;62.382;17.344;2023-03-13T00:50:29;99720.16;;;14.34;16.33
13478;BME280;12598;62.382;17.344;2023-03-13T00:51:30;99720.16;;;14.34;16.18
13478;BME280;12598;62.382;17.344;2023-03-13T00:52:32;99683.06;;;14.15;16.47
13478;BME280;12598;62.382;17.344;2023-03-13T00:53:35;99709.69;;;14.33;16.02
13478;BME280;12598;62.382;17.344;2023-03-13T00:54:37;99716.00;;;14.32;16.25
13478;BME280;12598;62.382;17.344;2023-03-13T00:55:50;99704.50;;;14.31;16.06
13478;BME280;12598;62.382;17.344;2023-03-13T00:56:52;99708.72;;;14.34;15.87
13478;BME280;12598;62.382;17.344;2023-03-13T00:57:54;99708.84;;;14.32;15.73
13478;BME280;12598;62.382;17.344;2023-03-13T00:58:58;99700.50;;;14.27;15.98
13478;BME280;12598;62.382;17.344;2023-03-13T01:00:01;99707.34;;;14.30;16.08
13478;BME280;12598;62.382;17.344;2023-03-13T01:02:16;99690.84;;;14.26;15.74
13478;BME280;12598;62.382;17.344;2023-03-13T01:03:18;99702.31;;;14.27;16.17
13478;BME280;12598;62.382;17.344;2023-03-13T01:04:21;99694.91;;;14.21;16.15
13478;BME280;12598;62.382;17.344;2023-03-13T01:05:23;99699.81;;;14.25;15.64
13478;BME280;12598;62.382;17.344;2023-03-13T01:06:28;99697.28;;;14.24;15.76
13478;BME280;12598;62.382;17.344;2023-03-13T01:07:31;99694.63;;;14.24;15.74
13478;BME280;12598;62.382;17.344;2023-03-13T01:08:34;99693.78;;;14.23;15.96
13478;BME280;12598;62.382;17.344;2023-03-13T01:09:37;99699.13;;;14.23;16.09
13478;BME280;12598;62.382;17.344;2023-03-13T01:10:38;99706.25;;;14.23;16.10
13478;BME280;12598;62.382;17.344;2023-03-13T01:11:42;99700.22;;;14.21;16.30
13478;BME280;12598;62.382;17.344;2023-03-13T01:12:46;99699.25;;;14.22;15.79
13478;BME280;12598;62.382;17.344;2023-03-13T01:13:48;99689.75;;;14.19;15.94
13478;BME280;12598;62.382;17.344;2023-03-13T01:14:52;99693.09;;;14.21;16.11
13478;BME280;12598;62.382;17.344;2023-03-13T01:15:55;99686.13;;;14.20;16.21
13478;BME280;12598;62.382;17.344;2023-03-13T01:16:57;99689.91;;;14.18;15.85
13478;BME280;12598;62.382;17.344;2023-03-13T01:17:59;99672.72;;;14.12;16.09
13478;BME280;12598;62.382;17.344;2023-03-13T01:19:07;99684.75;;;14.16;16.08
13478;BME280;12598;62.382;17.344;2023-03-13T01:20:13;99678.28;;;14.19;16.29
13478;BME280;12598;62.382;17.344;2023-03-13T01:21:17;99675.78;;;14.17;16.01
13478;BME280;12598;62.382;17.344;2023-03-13T01:22:21;99675.63;;;14.19;15.95
13478;BME280;12598;62.382;17.344;2023-03-13T01:23:23;99674.13;;;14.16;16.32
13478;BME280;12598;62.382;17.344;2023-03-13T01:24:26;99679.44;;;14.16;16.01
13478;BME280;12598;62.382;17.344;2023-03-13T01:25:28;99672.44;;;14.15;16.29
13478;BME280;12598;62.382;17.344;2023-03-13T01:26:30;99671.72;;;14.13;16.40
13478;BME280;12598;62.382;17.344;2023-03-13T01:27:33;99669.66;;;14.07;15.59
13478;BME280;12598;62.382;17.344;2023-03-13T01:28:35;99668.22;;;14.13;16.05
13478;BME280;12598;62.382;17.344;2023-03-13T01:29:37;99662.09;;;14.12;16.03
13478;BME280;12598;62.382;17.344;2023-03-13T01:30:39;99663.75;;;14.13;15.73
13478;BME280;12598;62.382;17.344;2023-03-13T01:31:43;99625.44;;;13.89;16.10
13478;BME280;12598;62.382;17.344;2023-03-13T01:32:45;99662.09;;;14.12;15.57
13478;BME280;12598;62.382;17.344;2023-03-13T01:33:49;99663.19;;;14.10;15.59
13478;BME280;12598;62.382;17.344;2023-03-13T01:34:52;99664.88;;;14.11;16.30
13478;BME280;12598;62.382;17.344;2023-03-13T01:36:00;99667.69;;;14.09;15.85
13478;BME280;12598;62.382;17.344;2023-03-13T01:37:03;99666.53;;;14.12;15.93
13478;BME280;12598;62.382;17.344;2023-03-13T01:38:05;99667.53;;;14.11;15.62
13478;BME280;12598;62.382;17.344;2023-03-13T01:39:07;99663.94;;;14.02;16.19
13478;BME280;12598;62.382;17.344;2023-03-13T01:40:10;99678.47;;;14.08;16.01
13478;BME280;12598;62.382;17.344;2023-03-13T01:41:12;99673.31;;;14.06;15.85
13478;BME280;12598;62.382;17.344;2023-03-13T01:42:16;99656.94;;;14.01;15.69
13478;BME280;12598;62.382;17.344;2023-03-13T01:44:28;99664.34;;;14.07;15.62
13478;BME280;12598;62.382;17.344;2023-03-13T01:45:56;99677.34;;;14.10;16.30
13478;BME280;12598;62.382;17.344;2023-03-13T01:47:02;99673.69;;;14.11;16.22
13478;BME280;12598;62.382;17.344;2023-03-13T01:48:52;99670.75;;;14.14;15.67
13478;BME280;12598;62.382;17.344;2023-03-13T01:49:56;99668.94;;;14.15;15.86
13478;BME280;12598;62.382;17.344;2023-03-13T01:52:28;99664.19;;;14.09;15.96
13478;BME280;12598;62.382;17.344;2023-03-13T01:53:46;99651.06;;;14.07;16.04
13478;BME280;12598;62.382;17.344;2023-03-13T01:54:53;99656.50;;;14.06;15.85
13478;BME280;12598;62.382;17.344;2023-03-13T01:55:58;99654.28;;;14.01;15.96
13478;BME280;12598;62.382;17.344;2023-03-13T01:57:23;99650.81;;;14.01;15.98
13478;BME280;12598;62.382;17.344;2023-03-13T01:58:27;99664.66;;;14.04;15.61
13478;BME280;12598;62.382;17.344;2023-03-13T01:59:33;99655.72;;;13.96;16.08
13478;BME280;12598;62.382;17.344;2023-03-13T02:00:38;99664.78;;;14.03;15.97
13478;BME280;12598;62.382;17.344;2023-03-13T02:01:45;99658.91;;;13.99;15.62
13478;BME280;12598;62.382;17.344;2023-03-13T02:02:50;99665.22;;;13.98;16.05
13478;BME280;12598;62.382;17.344;2023-03-13T02:03:55;99656.56;;;13.96;16.14
13478;BME280;12598;62.382;17.344;2023-03-13T02:05:00;99659.38;;;13.95;16.17
13478;BME280;12598;62.382;17.344;2023-03-13T02:06:04;99654.34;;;13.92;15.71
13478;BME280;12598;62.382;17.344;2023-03-13T02:07:14;99665.50;;;13.95;15.70
13478;BME280;12598;62.382;17.344;2023-03-13T02:08:22;99663.84;;;13.94;15.67
13478;BME280;12598;62.382;17.344;2023-03-13T02:09:28;99663.03;;;13.94;15.89
13478;BME280;12598;62.382;17.344;2023-03-13T02:10:38;99658.81;;;13.91;15.86
13478;BME280;12598;62.382;17.344;2023-03-13T02:11:56;99650.56;;;13.94;15.92
13478;BME280;12598;62.382;17.344;2023-03-13T02:12:59;99657.53;;;13.95;15.45
13478;BME280;12598;62.382;17.344;2023-03-13T02:14:03;99645.84;;;13.88;16.07
13478;BME280;12598;62.382;17.344;2023-03-13T02:15:11;99650.72;;;13.93;16.13
13478;BME280;12598;62.382;17.344;2023-03-13T02:16:14;99657.84;;;13.92;15.93
13478;BME280;12598;62.382;17.344;2023-03-13T02:17:21;99638.47;;;13.82;16.05
13478;BME280;12598;62.382;17.344;2023-03-13T02:18:24;99657.16;;;13.90;16.25
13478;BME280;12598;62.382;17.344;2023-03-13T02:19:43;99664.13;;;13.91;15.74
13478;BME280;12598;62.382;17.344;2023-03-13T02:20:46;99664.13;;;13.91;15.54
13478;BME280;12598;62.382;17.344;2023-03-13T02:22:03;99660.41;;;13.84;15.73
13478;BME280;12598;62.382;17.344;2023-03-13T02:23:20;99665.81;;;13.92;16.20
13478;BME280;12598;62.382;17.344;2023-03-13T02:26:12;99638.16;;;13.85;15.51
13478;BME280;12598;62.382;17.344;2023-03-13T02:27:14;99654.19;;;13.93;16.11
13478;BME280;12598;62.382;17.344;2023-03-13T02:28:20;99646.81;;;13.87;16.21
13478;BME280;12598;62.382;17.344;2023-03-13T02:29:24;99648.41;;;13.80;15.66
13478;BME280;12598;62.382;17.344;2023-03-13T02:30:27;99647.97;;;13.85;15.85
13478;BME280;12598;62.382;17.344;2023-03-13T02:31:30;99646.28;;;13.84;16.25
13478;BME280;12598;62.382;17.344;2023-03-13T02:32:32;99649.09;;;13.82;15.92
13478;BME280;12598;62.382;17.344;2023-03-13T02:33:38;99638.38;;;13.74;15.94
13478;BME280;12598;62.382;17.344;2023-03-13T02:34:46;99644.06;;;13.79;15.91
13478;BME280;12598;62.382;17.344;2023-03-13T02:35:49;99649.09;;;13.82;15.75
13478;BME280;12598;62.382;17.344;2023-03-13T02:36:52;99652.72;;;13.81;16.24
13478;BME280;12598;62.382;17.344;2023-03-13T02:37:58;99647.72;;;13.78;16.24
13478;BME280;12598;62.382;17.344;2023-03-13T02:39:04;99617.59;;;13.60;16.30
13478;BME280;12598;62.382;17.344;2023-03-13T02:40:09;99634.84;;;13.74;16.13
13478;BME280;12598;62.382;17.344;2023-03-13T02:41:14;99635.72;;;13.74;16.06
13478;BME280;12598;62.382;17.344;2023-03-13T02:42:17;99640.72;;;13.77;15.57
13478;BME280;12598;62.382;17.344;2023-03-13T02:43:33;99635.25;;;13.79;16.05
13478;BME280;12598;62.382;17.344;2023-03-13T02:44:40;99638.75;;;13.79;16.04
13478;BME280;12598;62.382;17.344;2023-03-13T02:46:09;99638.47;;;13.82;16.27
13478;BME280;12598;62.382;17.344;2023-03-13T02:47:23;99628.53;;;13.84;16.14
13478;BME280;12598;62.382;17.344;2023-03-13T02:48:31;99631.34;;;13.83;15.48
13478;BME280;12598;62.382;17.344;2023-03-13T02:49:35;99627.97;;;13.81;15.81
13478;BME280;12598;62.382;17.344;2023-03-13T02:50:37;99605.25;;;13.69;15.97
13478;BME280;12598;62.382;17.344;2023-03-13T02:51:43;99625.09;;;13.74;16.23
13478;BME280;12598;62.382;17.344;2023-03-13T02:53:00;99623.13;;;13.76;15.66
13478;BME280;12598;62.382;17.344;2023-03-13T02:54:08;99625.78;;;13.76;15.60
13478;BME280;12598;62.382;17.344;2023-03-13T02:55:17;99616.25;;;13.74;15.49
13478;BME280;12598;62.382;17.344;2023-03-13T02:56:25;99618.91;;;13.74;15.59
13478;BME280;12598;62.382;17.344;2023-03-13T02:57:29;99623.41;;;13.73;15.81
13478;BME280;12598;62.382;17.344;2023-03-13T02:58:39;99605.03;;;13.62;16.28
13478;BME280;12598;62.382;17.344;2023-03-13T02:59:53;99608.28;;;13.74;15.86
13478;BME280;12598;62.382;17.344;2023-03-13T03:00:56;99617.41;;;13.71;15.57
13478;BME280;12598;62.382;17.344;2023-03-13T03:01:58;99609.75;;;13.68;15.83
13478;BME280;12598;62.382;17.344;2023-03-13T03:02:59;99609.88;;;13.67;15.58
13478;BME280;12598;62.382;17.344;2023-03-13T03:04:01;99593.00;;;13.58;15.78
13478;BME280;12598;62.382;17.344;2023-03-13T03:05:05;99606.41;;;13.66;15.82
13478;BME280;12598;62.382;17.344;2023-03-13T03:06:07;99607.50;;;13.64;15.58
13478;BME280;12598;62.382;17.344;2023-03-13T03:07:09;99599.53;;;13.64;16.20
13478;BME280;12598;62.382;17.344;2023-03-13T03:08:11;99601.50;;;13.62;16.20
13478;BME280;12598;62.382;17.344;2023-03-13T03:09:13;99605.84;;;13.63;15.92
13478;BME280;12598;62.382;17.344;2023-03-13T03:10:16;99598.88;;;13.62;15.64
13478;BME280;12598;62.382;17.344;2023-03-13T03:11:18;99592.00;;;13.59;15.97
13478;BME280;12598;62.382;17.344;2023-03-13T03:12:24;99596.34;;;13.60;15.99
13478;BME280;12598;62.382;17.344;2023-03-13T03:13:27;99598.88;;;13.62;16.04
13478;BME280;12598;62.382;17.344;2023-03-13T03:14:29;99595.38;;;13.61;15.91
13478;BME280;12598;62.382;17.344;2023-03-13T03:15:31;99588.66;;;13.57;15.90
13478;BME280;12598;62.382;17.344;2023-03-13T03:16:34;99600.84;;;13.60;15.74
13478;BME280;12598;62.382;17.344;2023-03-13T03:17:39;99564.03;;;13.38;15.54
13478;BME280;12598;62.382;17.344;2023-03-13T03:18:43;99586.31;;;13.54;15.86
13478;BME280;12598;62.382;17.344;2023-03-13T03:19:45;99594.66;;;13.59;15.65
13478;BME280;12598;62.382;17.344;2023-03-13T03:20:47;99593.97;;;13.57;15.39
13478;BME280;12598;62.382;17.344;2023-03-13T03:21:49;99595.66;;;13.58;15.86
13478;BME280;12598;62.382;17.344;2023-03-13T03:22:52;99596.63;;;13.57;16.17
13478;BME280;12598;62.382;17.344;2023-03-13T03:23:54;99595.81;;;13.57;15.87
13478;BME280;12598;62.382;17.344;2023-03-13T03:24:57;99606.44;;;13.57;15.93
13478;BME280;12598;62.382;17.344;2023-03-13T03:26:00;99599.47;;;13.56;16.14
13478;BME280;12598;62.382;17.344;2023-03-13T03:27:04;99587.47;;;13.52;15.71
13478;BME280;12598;62.382;17.344;2023-03-13T03:28:12;99594.97;;;13.56;16.13
13478;BME280;12598;62.382;17.344;2023-03-13T03:29:15;99588.84;;;13.56;15.95
13478;BME280;12598;62.382;17.344;2023-03-13T03:30:21;99584.13;;;13.50;15.59
13478;BME280;12598;62.382;17.344;2023-03-13T03:31:25;99583.81;;;13.53;15.50
13478;BME280;12598;62.382;17.344;2023-03-13T03:32:30;99588.97;;;13.54;15.60
13478;BME280;12598;62.382;17.344;2023-03-13T03:33:32;99570.44;;;13.45;15.88
13478;BME280;12598;62.382;17.344;2023-03-13T03:34:38;99573.91;;;13.45;15.42
13478;BME280;12598;62.382;17.344;2023-03-13T03:35:41;99585.63;;;13.52;15.38
13478;BME280;12598;62.382;17.344;2023-03-13T03:36:43;99581.28;;;13.51;15.37
13478;BME280;12598;62.382;17.344;2023-03-13T03:37:45;99577.81;;;13.51;15.38
13478;BME280;12598;62.382;17.344;2023-03-13T03:38:47;99579.63;;;13.50;15.96
13478;BME280;12598;62.382;17.344;2023-03-13T03:39:51;99577.94;;;13.49;15.96
13478;BME280;12598;62.382;17.344;2023-03-13T03:40:53;99571.81;;;13.49;15.27
13478;BME280;12598;62.382;17.344;2023-03-13T03:41:55;99564.84;;;13.48;15.51
13478;BME280;12598;62.382;17.344;2023-03-13T03:42:58;99557.00;;;13.46;15.92
13478;BME280;12598;62.382;17.344;2023-03-13T03:44:00;99523.72;;;13.25;15.59
13478;BME280;12598;62.382;17.344;2023-03-13T03:45:12;99564.69;;;13.49;15.70
13478;BME280;12598;62.382;17.344;2023-03-13T03:46:14;99570.16;;;13.48;15.93
13478;BME280;12598;62.382;17.344;2023-03-13T03:47:17;99564.16;;;13.46;15.27
13478;BME280;12598;62.382;17.344;2023-03-13T03:48:21;99552.59;;;13.37;15.78
13478;BME280;12598;62.382;17.344;2023-03-13T03:49:23;99555.94;;;13.39;15.51
13478;BME280;12598;62.382;17.344;2023-03-13T03:50:26;99567.25;;;13.41;15.84
13478;BME280;12598;62.382;17.344;2023-03-13T03:51:33;99566.13;;;13.44;15.38
13478;BME280;12598;62.382;17.344;2023-03-13T03:52:35;99567.94;;;13.43;15.34
13478;BME280;12598;62.382;17.344;2023-03-13T03:53:37;99560.94;;;13.42;15.48
13478;BME280;12598;62.382;17.344;2023-03-13T03:54:40;99556.63;;;13.41;15.67
13478;BME280;12598;62.382;17.344;2023-03-13T03:55:42;99548.56;;;13.33;15.66
13478;BME280;12598;62.382;17.344;2023-03-13T03:56:44;99549.66;;;13.31;15.58
13478;BME280;12598;62.382;17.344;2023-03-13T03:57:46;99543.84;;;13.27;15.41
13478;BME280;12598;62.382;17.344;2023-03-13T03:58:54;99564.56;;;13.41;15.58
13478;BME280;12598;62.382;17.344;2023-03-13T04:00:16;99560.66;;;13.45;15.65
13478;BME280;12598;62.382;17.344;2023-03-13T04:01:25;99558.97;;;13.44;15.94
13478;BME280;12598;62.382;17.344;2023-03-13T04:02:27;99559.28;;;13.41;15.15
13478;BME280;12598;62.382;17.344;2023-03-13T04:03:29;99549.53;;;13.32;15.75
13478;BME280;12598;62.382;17.344;2023-03-13T04:04:31;99555.38;;;13.36;15.54
13478;BME280;12598;62.382;17.344;2023-03-13T04:06:06;99548.66;;;13.41;15.27
13478;BME280;12598;62.382;17.344;2023-03-13T04:07:08;99553.28;;;13.39;15.31
13478;BME280;12598;62.382;17.344;2023-03-13T04:08:10;99539.06;;;13.31;15.23
13478;BME280;12598;62.382;17.344;2023-03-13T04:09:12;99536.69;;;13.28;15.66
13478;BME280;12598;62.382;17.344;2023-03-13T04:10:14;99548.69;;;13.32;15.46
13478;BME280;12598;62.382;17.344;2023-03-13T04:11:18;99539.50;;;13.27;15.29
13478;BME280;12598;62.382;17.344;2023-03-13T04:12:24;99537.25;;;13.31;15.69
13478;BME280;12598;62.382;17.344;2023-03-13T04:13:28;99539.06;;;13.31;15.63
13478;BME280;12598;62.382;17.344;2023-03-13T04:14:32;99537.25;;;13.31;15.78
13478;BME280;12598;62.382;17.344;2023-03-13T04:15:38;99526.94;;;13.28;15.57
13478;BME280;12598;62.382;17.344;2023-03-13T04:16:42;99529.88;;;13.26;15.67
13478;BME280;12598;62.382;17.344;2023-03-13T04:17:44;99533.06;;;13.29;15.86
13478;BME280;12598;62.382;17.344;2023-03-13T04:18:46;99528.59;;;13.29;15.67
13478;BME280;12598;62.382;17.344;2023-03-13T04:19:50;99529.59;;;13.28;15.20
13478;BME280;12598;62.382;17.344;2023-03-13T04:21:02;99526.94;;;13.28;15.96
13478;BME280;12598;62.382;17.344;2023-03-13T04:22:11;99519.66;;;13.30;15.93
13478;BME280;12598;62.382;17.344;2023-03-13T04:23:19;99520.09;;;13.26;15.32
13478;BME280;12598;62.382;17.344;2023-03-13T04:24:21;99519.78;;;13.29;15.94
13478;BME280;12598;62.382;17.344;2023-03-13T04:25:22;99528.91;;;13.27;15.61
13478;BME280;12598;62.382;17.344;2023-03-13T04:26:26;99514.81;;;13.17;15.45
13478;BME280;12598;62.382;17.344;2023-03-13T04:27:32;99528.03;;;13.26;15.29
13478;BME280;12598;62.382;17.344;2023-03-13T04:28:34;99525.56;;;13.25;15.45
13478;BME280;12598;62.382;17.344;2023-03-13T04:29:38;99518.19;;;13.19;15.78
13478;BME280;12598;62.382;17.344;2023-03-13T04:30:59;99503.22;;;13.18;15.47
13478;BME280;12598;62.382;17.344;2023-03-13T04:32:20;99517.13;;;13.29;15.80
13478;BME280;12598;62.382;17.344;2023-03-13T04:33:54;99528.31;;;13.32;15.14
13478;BME280;12598;62.382;17.344;2023-03-13T04:35:10;99532.94;;;13.30;15.38
13478;BME280;12598;62.382;17.344;2023-03-13T04:36:31;99527.75;;;13.29;15.45
13478;BME280;12598;62.382;17.344;2023-03-13T04:37:51;99527.75;;;13.29;15.36
13478;BME280;12598;62.382;17.344;2023-03-13T04:39:09;99522.75;;;13.26;15.58
13478;BME280;12598;62.382;17.344;2023-03-13T04:40:40;99521.63;;;13.28;15.18
13478;BME280;12598;62.382;17.344;2023-03-13T04:42:12;99500.28;;;13.21;15.37
13478;BME280;12598;62.382;17.344;2023-03-13T04:43:34;99518.13;;;13.28;15.59
13478;BME280;12598;62.382;17.344;2023-03-13T04:44:46;99510.47;;;13.16;15.31
13478;BME280;12598;62.382;17.344;2023-03-13T04:46:06;99519.41;;;13.24;15.45
13478;BME280;12598;62.382;17.344;2023-03-13T04:47:20;99512.03;;;13.18;15.09
13478;BME280;12598;62.382;17.344;2023-03-13T04:48:38;99506.72;;;13.18;15.43
13478;BME280;12598;62.382;17.344;2023-03-13T04:49:59;99515.22;;;13.22;15.44
13478;BME280;12598;62.382;17.344;2023-03-13T04:51:16;99494.34;;;13.09;15.33
13478;BME280;12598;62.382;17.344;2023-03-13T04:52:50;99498.06;;;13.16;15.25
13478;BME280;12598;62.382;17.344;2023-03-13T04:54:01;99506.59;;;13.20;15.62
13478;BME280;12598;62.382;17.344;2023-03-13T04:55:15;99504.91;;;13.19;15.13
13478;BME280;12598;62.382;17.344;2023-03-13T04:56:34;99495.72;;;13.13;15.72
13478;BME280;12598;62.382;17.344;2023-03-13T04:58:02;99497.63;;;13.21;15.01
13478;BME280;12598;62.382;17.344;2023-03-13T04:59:14;99492.06;;;13.14;15.46
13478;BME280;12598;62.382;17.344;2023-03-13T05:00:33;99496.97;;;13.19;15.30
13478;BME280;12598;62.382;17.344;2023-03-13T05:01:53;99489.94;;;13.18;15.71
13478;BME280;12598;62.382;17.344;2023-03-13T05:03:30;99493.31;;;13.20;15.68
13478;BME280;12598;62.382;17.344;2023-03-13T05:04:49;99484.63;;;13.18;15.04
13478;BME280;12598;62.382;17.344;2023-03-13T05:06:18;99493.44;;;13.18;15.28
13478;BME280;12598;62.382;17.344;2023-03-13T05:07:47;99487.28;;;13.18;15.08
13478;BME280;12598;62.382;17.344;2023-03-13T05:09:07;99483.94;;;13.16;15.33
13478;BME280;12598;62.382;17.344;2023-03-13T05:10:38;99480.31;;;13.17;15.58
13478;BME280;12598;62.382;17.344;2023-03-13T05:11:40;99477.28;;;13.12;15.07
13478;BME280;12598;62.382;17.344;2023-03-13T05:13:01;99471.13;;;13.11;15.16
13478;BME280;12598;62.382;17.344;2023-03-13T05:14:32;99466.34;;;13.15;15.48
13478;BME280;12598;62.382;17.344;2023-03-13T05:15:52;99467.50;;;13.12;15.41
13478;BME280;12598;62.382;17.344;2023-03-13T05:17:03;99462.19;;;13.12;15.73
13478;BME280;12598;62.382;17.344;2023-03-13T05:18:27;99447.59;;;12.99;15.55
13478;BME280;12598;62.382;17.344;2023-03-13T05:19:49;99469.31;;;13.12;15.62
13478;BME280;12598;62.382;17.344;2023-03-13T05:21:11;99466.66;;;13.12;15.58
13478;BME280;12598;62.382;17.344;2023-03-13T05:22:30;99456.34;;;13.09;15.73
13478;BME280;12598;62.382;17.344;2023-03-13T05:23:50;99467.81;;;13.09;15.65
13478;BME280;12598;62.382;17.344;2023-03-13T05:25:12;99456.94;;;13.03;15.31
13478;BME280;12598;62.382;17.344;2023-03-13T05:26:46;99462.19;;;13.12;15.73
13478;BME280;12598;62.382;17.344;2023-03-13T05:28:07;99444.66;;;13.02;15.32
13478;BME280;12598;62.382;17.344;2023-03-13T05:29:41;99464.00;;;13.12;15.42
13478;BME280;12598;62.382;17.344;2023-03-13T05:31:09;99447.16;;;13.03;15.36
13478;BME280;12598;62.382;17.344;2023-03-13T05:32:31;99468.63;;;13.10;15.19
13478;BME280;12598;62.382;17.344;2023-03-13T05:33:33;99453.28;;;13.04;15.55
13478;BME280;12598;62.382;17.344;2023-03-13T05:35:01;99451.31;;;13.06;14.82
13478;BME280;12598;62.382;17.344;2023-03-13T05:36:31;99436.84;;;13.00;15.43
13478;BME280;12598;62.382;17.344;2023-03-13T05:38:02;99449.38;;;13.08;15.25
13478;BME280;12598;62.382;17.344;2023-03-13T05:39:16;99432.66;;;12.98;15.38
13478;BME280;12598;62.382;17.344;2023-03-13T05:40:41;99423.47;;;12.92;15.62
13478;BME280;12598;62.382;17.344;2023-03-13T05:42:01;99440.03;;;13.04;15.23
13478;BME280;12598;62.382;17.344;2023-03-13T05:43:26;99448.84;;;13.04;15.04
13478;BME280;12598;62.382;17.344;2023-03-13T05:44:46;99440.03;;;13.04;15.52
13478;BME280;12598;62.382;17.344;2023-03-13T05:45:48;99440.63;;;12.98;15.20
13478;BME280;12598;62.382;17.344;2023-03-13T05:47:09;99438.66;;;13.00;15.10
13478;BME280;12598;62.382;17.344;2023-03-13T05:48:30;99419.81;;;12.93;15.42
13478;BME280;12598;62.382;17.344;2023-03-13T05:49:49;99426.25;;;13.00;14.95
13478;BME280;12598;62.382;17.344;2023-03-13T05:51:06;99428.03;;;13.00;14.90
13478;BME280;12598;62.382;17.344;2023-03-13T05:52:21;99425.97;;;12.94;15.48
13478;BME280;12598;62.382;17.344;2023-03-13T05:53:35;99434.34;;;12.99;15.39
13478;BME280;12598;62.382;17.344;2023-03-13T05:54:45;99430.16;;;12.96;15.28
13478;BME280;12598;62.382;17.344;2023-03-13T05:56:06;99425.69;;;12.97;15.00
13478;BME280;12598;62.382;17.344;2023-03-13T05:57:31;99429.88;;;12.99;15.39
13478;BME280;12598;62.382;17.344;2023-03-13T05:58:55;99424.56;;;12.99;15.61
13478;BME280;12598;62.382;17.344;2023-03-13T06:00:16;99429.88;;;12.99;15.18
13478;BME280;12598;62.382;17.344;2023-03-13T06:01:47;99420.78;;;13.02;14.91
13478;BME280;12598;62.382;17.344;2023-03-13T06:02:59;99415.75;;;12.99;15.04
13478;BME280;12598;62.382;17.344;2023-03-13T06:04:09;99414.53;;;12.93;15.19